• Join FlightAware (Why Join?)
  • Login
  • US Flag 
06:16AM EDT


 

Airport Tracker/Info


-or-


 

Live Flight TrackerFlight Track Log ✈ SWA2436 ✈ 08-Apr-2013 ✈ KMCO - KMSY

Flight Track Log - Related Links

Times and Time Zones

All times are in EDT time to prevent confusion due to time zone crossing. See the SWA2436 flight status page for this flight to view local times or setup timezone preferences in your user account.

Time Position Orientation Groundspeed Altitude Reporting Facility
EDT Latitude Longitude Course Direction KTS MPH feet Rate Location/Type
08:29PM 28.3667 -81.3333 221° Southwest 224 258 5,000  Level Orlando TRACON
08:29PM 28.3333 -81.3833 233° Southwest 280 322 7,500 1,440 Climbing Orlando TRACON
08:31PM 28.3494 -81.5364 277° West 298 343 8,700 1,560 Climbing Jacksonville Center
08:32PM 28.3567 -81.6331 275° West 288 331 12,000 3,600 Climbing Jacksonville Center
08:33PM 28.3661 -81.7436 276° West 326 375 15,900 3,840 Climbing Jacksonville Center
08:34PM 28.3481 -81.8525 259° West 358 412 19,700 3,600 Climbing Jacksonville Center
08:35PM 28.3261 -81.9706 258° West 375 432 23,200 3,360 Climbing Jacksonville Center
08:36PM 28.2997 -82.0911 256° West 386 444 26,500 3,000 Climbing Jacksonville Center
08:37PM 28.2714 -82.2161 256° West 399 459 29,200 2,520 Climbing Jacksonville Center
08:40PM 28.1992 -82.5239 255° West 412 474 35,400 2,580 Climbing Miami Center
08:41PM 28.1731 -82.6567 257° West 407 468 38,300 2,220 Climbing Miami Center
08:42PM 28.1475 -82.7708 256° West 401 461 39,900 840 Climbing Miami Center
08:43PM 28.1197 -82.8869 255° West 390 449 40,000  Climbing Miami Center
08:44PM 28.0942 -83.0031 256° West 390 449 40,000  Level Miami Center
08:45PM 28.0681 -83.1217 256° West 395 455 40,000  Level Miami Center
08:46PM 28.0442 -83.2378 257° West 395 455 40,000  Level Miami Center
08:47PM 28.0142 -83.3511 253° West 390 449 40,000  Level Miami Center
08:48PM 27.9961 -83.4700 260° West 390 449 40,000  Level Miami Center
08:49PM 27.9864 -83.5917 265° West 390 449 40,000  Level Miami Center
08:50PM 27.9828 -83.7089 268° West 385 443 40,000  Level Miami Center
08:51PM 27.9708 -83.8278 264° West 385 443 40,000  Level Miami Center
08:52PM 27.9672 -83.9450 268° West 385 443 40,000  Level Miami Center
08:53PM 27.9611 -84.0667 267° West 385 443 40,000  Level Miami Center
08:54PM 27.9489 -84.1856 263° West 385 443 40,000  Level Miami Center
08:55PM 27.9447 -84.3050 268° West 385 443 40,000  Level Miami Center
08:56PM 27.9358 -84.4733 267° West 387 445 40,000  Level Jacksonville Center
08:57PM 27.9258 -84.5908 265° West 387 445 40,000  Level Jacksonville Center
08:58PM 27.9222 -84.7150 268° West 387 445 40,000  Level Jacksonville Center
08:59PM 27.9119 -84.8325 264° West 387 445 40,000  Level Jacksonville Center
09:00PM 27.9039 -84.9519 266° West 377 434 40,000  Level Jacksonville Center
09:01PM 27.8978 -85.0692 267° West 385 443 40,000  Level Jacksonville Center
09:02PM 27.8897 -85.1842 265° West 385 443 40,000  Level Jacksonville Center
09:03PM 27.8956 -85.3133 273° West 386 444 40,000  Level Jacksonville Center
09:04PM 27.9311 -85.4222 290° West 377 434 40,000  Level Jacksonville Center
09:05PM 27.9683 -85.5431 289° West 387 445 40,000  Level Jacksonville Center
09:06PM 28.0036 -85.6519 290° West 388 447 40,000  Level Jacksonville Center
09:07PM 28.0364 -85.7681 288° West 388 447 40,000  Level Jacksonville Center
09:08PM 28.0714 -85.8797 290° West 383 441 40,000  Level Jacksonville Center
09:09PM 28.1064 -85.9936 289° West 383 441 40,000  Level Jacksonville Center
09:10PM 28.1411 -86.1078 289° West 383 441 40,000  Level Jacksonville Center
09:11PM 28.1736 -86.2217 288° West 388 447 40,000  Level Jacksonville Center
09:12PM 28.2061 -86.3358 288° West 383 441 40,000  Level Jacksonville Center
09:13PM 28.2444 -86.4572 290° West 396 456 40,000  Level Jacksonville Center
09:14PM 28.2747 -86.5667 287° West 385 443 40,000  Level Jacksonville Center
09:15PM 28.3089 -86.6858 288° West 391 450 40,000  Level Jacksonville Center
09:16PM 28.3431 -86.7956 290° West 384 442 40,000  Level Jacksonville Center
09:17PM 28.3750 -86.9100 288° West 384 442 40,000  Level Jacksonville Center
09:18PM 28.4089 -87.0269 288° West 384 442 40,000  Level Jacksonville Center
09:20PM 28.4808 -87.2708 289° West 383 441 40,000  Level Houston Center
09:21PM 28.5139 -87.3861 288° West 384 442 40,000  Level Houston Center
09:22PM 28.5464 -87.5019 288° West 386 444 40,000  Level Houston Center
09:23PM 28.5806 -87.6167 289° West 385 443 40,000  Level Houston Center
09:24PM 28.6131 -87.7333 288° West 386 444 40,000  Level Houston Center
09:25PM 28.6525 -87.8742 288° West 388 447 40,000  Level Houston Center
09:26PM 28.6858 -87.9908 288° West 388 447 40,000  Level Houston Center
09:27PM 28.7153 -88.0953 288° West 389 448 40,000  Level Houston Center
09:28PM 28.7486 -88.2133 288° West 391 450 40,000  Level Houston Center
09:30PM 28.7806 -88.3297 287° West 387 445 40,000  Level Houston Center
09:31PM 28.8194 -88.4719 287° West 392 451 40,000 -960 Level Houston Center
09:32PM 28.8517 -88.5869 288° West 383 441 38,100 -2,220 Descending Houston Center
09:33PM 28.8858 -88.7022 289° West 384 442 35,500 -1,680 Descending Houston Center
09:34PM 28.9575 -88.8006 310° West 401 461 34,700 -900 Descending Houston Center
09:35PM 29.0333 -88.8989 311° West 413 475 33,700 -1,260 Descending Houston Center
09:36PM 29.1050 -88.9950 310° West 401 461 32,200 -1,860 Descending Houston Center
09:37PM 29.1736 -89.0864 311° West 383 441 30,000 -2,160 Descending Houston Center
09:38PM 29.2389 -89.1786 309° West 375 432 27,800 -2,160 Descending Houston Center
09:39PM 29.3053 -89.2636 312° West 363 418 25,700 -2,160 Descending Houston Center
09:40PM 29.3736 -89.3539 311° West 377 434 23,500 -2,460 Descending Houston Center
09:41PM 29.4556 -89.4678 310° West 386 444 20,800 -2,520 Descending Houston Center
09:41PM 29.4875 -89.5114 310° West 385 443 19,700 -2,280 Descending Houston Center
09:42PM 29.5253 -89.5614 311° West 384 442 18,500 -2,340 Descending Houston Center
09:42PM 29.5511 -89.5967 310° West 382 440 17,600 -2,280 Descending Houston Center
09:43PM 29.5894 -89.6544 307° West 376 433 16,200 -2,100 Descending Houston Center
09:43PM 29.6128 -89.6872 309° West 356 410 15,500 -1,680 Descending Houston Center
09:44PM 29.6492 -89.7403 308° West 355 409 14,500 -1,800 Descending Houston Center
09:44PM 29.6656 -89.7639 309° West 327 376 13,900 -3,060 Descending Houston Center
09:45PM 29.7061 -89.8183 311° West 331 381 11,400 -3,840 Descending Houston Center
09:45PM 29.7247 -89.8450 309° West 325 374 10,000 -1,980 Descending Houston Center
09:46PM 29.7678 -89.9019 311° West 336 387 9,400 -1,200 Descending Houston Center
09:46PM 29.7858 -89.9236 314° West 331 381 8,800 -1,680 Descending Houston Center
09:47PM 29.8247 -89.9744 311° West 319 367 7,700 -1,800 Descending Houston Center
09:47PM 29.8447 -89.9978 315° West 284 327 7,000 -1,980 Descending Houston Center
09:48PM 29.8783 -90.0425 311° West 298 343 5,700 -1,680 Descending Houston Center
09:49PM 29.9325 -90.1136 311° West 295 339 4,100 -1,380 Descending Houston Center
09:49PM 29.9494 -90.1397 307° West 294 338 4,000 -900 Descending Houston Center
09:50PM 29.9953 -90.1581 341° North 286 329 3,200 -1,320 Descending Houston Center
09:50PM 30.0214 -90.1656 346° North 270 311 2,700 -1,320 Descending Houston Center
09:51PM 30.0697 -90.1753 350° North 278 320 1,900 -600 Descending Houston Center
09:52PM 30.0964 -90.2192 305° West 230 265 1,700 -360 Descending Houston Center
09:53PM 30.0611 -90.2283 193° South 164 189 1,200 -660 Descending Houston Center
09:54PM 30.0156 -90.2428 195° South 122 140 300 -840 Descending Houston Center
09:56PM 29.9833 -90.2500 196° South  Level FlightAware Approximate